createdAt,value
2022-11-16T00:00:22.031Z,131.84
2022-11-16T00:02:28.078Z,134.38
2022-11-16T00:04:35.101Z,133.41
2022-11-16T00:06:41.229Z,133.43
2022-11-16T00:09:14.111Z,133.27
2022-11-16T00:11:23.297Z,131.56
2022-11-16T00:13:29.126Z,131.17
2022-11-16T00:15:34.880Z,133.78
2022-11-16T00:17:41.547Z,133.19
2022-11-16T00:19:47.404Z,132.24
2022-11-16T00:21:53.170Z,131.70
2022-11-16T00:24:00.780Z,131.67
2022-11-16T00:26:09.270Z,131.16
2022-11-16T00:28:18.117Z,134.73
2022-11-16T00:30:25.922Z,140.97
2022-11-16T00:32:32.314Z,135.31
2022-11-16T00:34:38.629Z,132.05
2022-11-16T00:36:45.823Z,131.86
2022-11-16T00:38:56.161Z,128.37
2022-11-16T00:41:01.897Z,126.73
2022-11-16T00:43:08.493Z,126.98
2022-11-16T00:45:17.329Z,124.67
2022-11-16T00:47:23.109Z,125.43
2022-11-16T00:49:29.620Z,123.37
2022-11-16T00:51:36.006Z,123.43
2022-11-16T00:53:43.000Z,118.71
2022-11-16T00:55:51.763Z,118.58
2022-11-16T00:57:59.238Z,120.59
2022-11-16T01:00:05.359Z,120.54
2022-11-16T01:02:16.214Z,116.82
2022-11-16T01:04:22.057Z,117.13
2022-11-16T01:06:27.934Z,114.03
2022-11-16T01:08:35.859Z,113.19
2022-11-16T01:10:44.335Z,116.68
2022-11-16T01:12:50.228Z,117.26
2022-11-16T01:14:57.144Z,117.12
2022-11-16T01:17:04.949Z,119.34
2022-11-16T01:19:13.784Z,117.32
2022-11-16T01:21:21.262Z,113.59
2022-11-16T01:23:27.065Z,110.68
2022-11-16T01:25:32.916Z,111.47
2022-11-16T01:27:40.128Z,111.75
2022-11-16T01:29:50.095Z,109.55
2022-11-16T01:31:56.253Z,112.28
2022-11-16T01:34:03.325Z,110.65
2022-11-16T01:36:17.430Z,112.87
2022-11-16T01:38:28.430Z,111.85
2022-11-16T01:40:41.134Z,113.18
2022-11-16T01:42:47.396Z,110.57
2022-11-16T01:45:26.347Z,112.20
2022-11-16T01:47:37.104Z,114.10
2022-11-16T01:49:51.614Z,114.61
2022-11-16T01:52:10.109Z,114.91
2022-11-16T01:54:18.279Z,114.91
2022-11-16T01:56:51.867Z,115.02
2022-11-16T01:59:06.398Z,116.35
2022-11-16T02:01:13.119Z,114.25
2022-11-16T02:03:25.555Z,115.62
2022-11-16T02:05:53.231Z,115.39
2022-11-16T02:08:40.686Z,112.89
2022-11-16T02:11:15.285Z,110.86
2022-11-16T02:13:45.020Z,116.89
2022-11-16T02:16:03.458Z,114.91
2022-11-16T02:18:29.964Z,115.96
2022-11-16T02:21:26.657Z,118.22
2022-11-16T02:24:23.522Z,117.90
2022-11-16T02:27:04.917Z,116.62
2022-11-16T02:29:31.806Z,107.86
2022-11-16T02:31:47.493Z,110.19
2022-11-16T02:33:59.009Z,108.07
2022-11-16T02:36:15.424Z,106.66
2022-11-16T02:38:31.179Z,108.38
2022-11-16T02:40:47.954Z,107.63
2022-11-16T02:43:10.700Z,107.31
2022-11-16T02:45:27.408Z,105.22
2022-11-16T02:47:38.304Z,106.53
2022-11-16T02:49:57.504Z,108.40
2022-11-16T02:52:04.991Z,106.64
2022-11-16T02:54:17.491Z,107.04
2022-11-16T02:56:28.461Z,105.91
2022-11-16T02:58:35.099Z,109.03
2022-11-16T03:00:54.909Z,110.73
2022-11-16T03:03:23.703Z,108.42
2022-11-16T03:05:38.370Z,103.32
2022-11-16T03:07:53.870Z,101.38
2022-11-16T03:10:05.475Z,101.28
2022-11-16T03:12:20.733Z,100.77
2022-11-16T03:14:37.682Z,98.12
2022-11-16T03:16:53.821Z,93.12
